Time;durP1;ratioP1;P1;durP2;ratioP2;P2;SDS_P1;SDS_P2;PMS_P1;PMS_P2;Temp;Humidity;BMP_temperature;BMP_pressure;BME280_temperature;BME280_humidity;BME280_pressure;Samples;Min_cycle;Max_cycle;Signal;HPM_P1;HPM_P2
2022/08/06 00:02:26;;;;;;;11.40;10.73;;;11.20;99.90;;;;;;5063960;28;20469;-68
2022/08/06 00:04:55;;;;;;;12.30;11.53;;;11.10;99.90;;;;;;5062076;28;20463;-67
2022/08/06 00:07:22;;;;;;;11.17;10.37;;;11.10;99.90;;;;;;5061977;28;20557;-66
2022/08/06 00:09:49;;;;;;;11.60;10.90;;;10.90;99.90;;;;;;5057608;28;20462;-68
2022/08/06 00:12:18;;;;;;;10.70;10.00;;;10.90;99.90;;;;;;5063089;28;20992;-67
2022/08/06 00:14:46;;;;;;;11.13;10.20;;;10.90;99.90;;;;;;5056446;28;20970;-67
2022/08/06 00:17:14;;;;;;;10.67;10.07;;;10.90;99.90;;;;;;5069828;28;20846;-68
2022/08/06 00:19:41;;;;;;;10.73;9.90;;;10.90;99.90;;;;;;5062336;28;20859;-67
2022/08/06 00:22:08;;;;;;;10.83;9.90;;;10.90;99.90;;;;;;5059551;28;20465;-68
2022/08/06 00:24:35;;;;;;;10.63;9.90;;;10.90;99.90;;;;;;5056657;28;20568;-68
2022/08/06 00:27:02;;;;;;;10.87;9.80;;;11.00;99.90;;;;;;5059106;28;20469;-67
2022/08/06 00:29:32;;;;;;;15.37;10.50;;;10.90;99.90;;;;;;5056902;28;20464;-68
2022/08/06 00:31:59;;;;;;;12.03;11.10;;;10.90;99.90;;;;;;5066302;28;20486;-66
2022/08/06 00:34:26;;;;;;;11.40;10.57;;;10.80;99.90;;;;;;5063873;28;20459;-69
2022/08/06 00:36:53;;;;;;;13.40;11.30;;;10.80;99.90;;;;;;5063944;28;20553;-67
2022/08/06 00:39:21;;;;;;;10.33;9.73;;;10.90;99.90;;;;;;5060030;28;20463;-68
2022/08/06 00:41:48;;;;;;;10.67;9.97;;;10.80;99.90;;;;;;5059470;28;20819;-66
2022/08/06 00:44:15;;;;;;;11.37;10.30;;;10.80;99.90;;;;;;5063995;28;20556;-67
2022/08/06 00:46:44;;;;;;;14.20;10.60;;;10.70;99.90;;;;;;5064853;28;20465;-69
2022/08/06 00:49:11;;;;;;;11.33;10.53;;;10.60;99.90;;;;;;5055850;28;20464;-69
2022/08/06 00:51:38;;;;;;;11.70;10.80;;;10.60;99.90;;;;;;5055507;28;20499;-67
2022/08/06 00:54:05;;;;;;;12.10;10.97;;;10.50;99.90;;;;;;5059154;28;20563;-69
2022/08/06 00:56:32;;;;;;;11.57;10.83;;;10.50;99.90;;;;;;5057400;28;20468;-67
2022/08/06 00:58:59;;;;;;;11.50;10.70;;;10.50;99.90;;;;;;5063871;28;20509;-68
2022/08/06 01:01:26;;;;;;;11.57;10.50;;;10.50;99.90;;;;;;5063174;28;20482;-66
2022/08/06 01:03:55;;;;;;;11.87;10.97;;;10.40;99.90;;;;;;5060531;28;20466;-68
2022/08/06 01:06:22;;;;;;;11.60;10.73;;;10.40;99.90;;;;;;5060056;28;20466;-68
2022/08/06 01:08:49;;;;;;;11.67;10.60;;;10.30;99.90;;;;;;5063620;28;20455;-66
2022/08/06 01:11:17;;;;;;;12.10;10.97;;;10.10;99.90;;;;;;5064254;28;20475;-68
2022/08/06 01:13:44;;;;;;;11.90;10.90;;;10.10;99.90;;;;;;5057601;28;20793;-67
2022/08/06 01:16:15;;;;;;;11.47;10.40;;;10.10;99.90;;;;;;5066250;28;20544;-69
2022/08/06 01:18:50;;;;;;;12.33;11.13;;;10.20;99.90;;;;;;5065698;28;20467;-67
2022/08/06 01:21:35;;;;;;;10.53;9.70;;;10.30;99.90;;;;;;5060131;28;20590;-68
2022/08/06 01:24:25;;;;;;;11.50;10.50;;;10.20;99.90;;;;;;5060764;28;20460;-67
2022/08/06 01:26:57;;;;;;;11.23;10.33;;;10.20;99.90;;;;;;5060790;28;20466;-69
2022/08/06 01:29:30;;;;;;;11.20;10.40;;;10.20;99.90;;;;;;5060986;28;20460;-68
2022/08/06 01:32:06;;;;;;;11.27;10.50;;;10.10;99.90;;;;;;5059663;28;20460;-68
2022/08/06 01:34:39;;;;;;;11.57;10.63;;;10.10;99.90;;;;;;5061586;28;20463;-67
2022/08/06 01:37:21;;;;;;;13.83;11.33;;;10.10;99.90;;;;;;5061102;28;21047;-68
2022/08/06 01:39:53;;;;;;;11.40;10.67;;;10.00;99.90;;;;;;5063877;28;20799;-69
2022/08/06 01:42:22;;;;;;;11.67;10.87;;;10.00;99.90;;;;;;5058925;28;20865;-68
2022/08/06 01:44:54;;;;;;;13.63;11.00;;;10.00;99.90;;;;;;5060121;28;20475;-68
2022/08/06 01:47:25;;;;;;;12.20;11.17;;;10.00;99.90;;;;;;5059059;28;20830;-68
2022/08/06 01:49:57;;;;;;;10.60;10.00;;;10.00;99.90;;;;;;5056798;28;20561;-68
2022/08/06 01:52:25;;;;;;;11.93;10.80;;;10.00;99.90;;;;;;5060420;28;20463;-68
2022/08/06 01:54:58;;;;;;;11.50;10.40;;;10.00;99.90;;;;;;5061580;28;20459;-69
2022/08/06 01:57:27;;;;;;;11.47;10.67;;;9.90;99.90;;;;;;5062100;28;20769;-68
2022/08/06 01:59:57;;;;;;;11.67;10.67;;;9.90;99.90;;;;;;5058982;28;20754;-68
2022/08/06 02:02:29;;;;;;;11.80;10.97;;;9.80;99.90;;;;;;5064925;28;20506;-68
2022/08/06 02:05:01;;;;;;;12.03;11.10;;;9.70;99.90;;;;;;5059194;28;20466;-68
2022/08/06 02:07:33;;;;;;;13.83;11.70;;;9.60;99.90;;;;;;5055964;28;20893;-68
2022/08/06 02:10:02;;;;;;;10.47;9.87;;;9.60;99.90;;;;;;5062716;28;20865;-68
2022/08/06 02:12:32;;;;;;;11.80;11.00;;;9.60;99.90;;;;;;5062588;28;20570;-68
2022/08/06 02:15:05;;;;;;;11.20;10.57;;;9.50;99.90;;;;;;5057753;28;20829;-67
2022/08/06 02:17:39;;;;;;;15.53;11.93;;;9.40;99.90;;;;;;5057314;28;20462;-67
2022/08/06 02:20:08;;;;;;;13.30;12.10;;;9.20;99.90;;;;;;5058223;28;20460;-68
2022/08/06 02:22:40;;;;;;;12.90;11.80;;;9.10;99.90;;;;;;5057954;28;20590;-69
2022/08/06 02:25:11;;;;;;;12.40;11.70;;;9.20;99.90;;;;;;5059359;28;20491;-69
2022/08/06 02:27:42;;;;;;;12.73;11.93;;;9.20;99.90;;;;;;5055436;28;20554;-68
2022/08/06 02:30:13;;;;;;;13.50;12.50;;;9.10;99.90;;;;;;5055311;28;20792;-68
2022/08/06 02:32:42;;;;;;;13.40;12.17;;;9.10;99.90;;;;;;5070682;28;20459;-68
2022/08/06 02:35:10;;;;;;;13.60;12.67;;;9.10;99.90;;;;;;5056249;28;20468;-69
2022/08/06 02:37:42;;;;;;;13.27;12.33;;;9.10;99.90;;;;;;5062387;28;20978;-68
2022/08/06 02:40:17;;;;;;;15.90;12.00;;;9.10;99.90;;;;;;5060081;28;20942;-67
2022/08/06 02:42:50;;;;;;;12.60;12.00;;;9.00;99.90;;;;;;5058487;28;20505;-68
2022/08/06 02:45:24;;;;;;;13.03;12.20;;;9.00;99.90;;;;;;5059884;28;20494;-70
2022/08/06 02:47:58;;;;;;;13.13;12.03;;;8.90;99.90;;;;;;5057424;28;20474;-67
2022/08/06 02:50:31;;;;;;;13.33;12.03;;;8.90;99.90;;;;;;5054349;28;20464;-70
2022/08/06 02:53:02;;;;;;;13.47;12.40;;;8.90;99.90;;;;;;5059701;28;20475;-67
2022/08/06 02:55:33;;;;;;;13.30;12.30;;;8.80;99.90;;;;;;5064270;28;20828;-68
2022/08/06 02:58:08;;;;;;;13.77;12.87;;;8.70;99.90;;;;;;5060368;28;20490;-68
2022/08/06 03:00:38;;;;;;;14.00;13.10;;;8.60;99.90;;;;;;5055881;28;20458;-68
2022/08/06 03:03:07;;;;;;;15.17;13.83;;;8.50;99.90;;;;;;5057857;28;20466;-67
2022/08/06 03:05:36;;;;;;;13.77;12.77;;;8.60;99.90;;;;;;5063325;28;20467;-69
2022/08/06 03:08:06;;;;;;;13.77;12.87;;;8.70;99.90;;;;;;5060575;28;20560;-69
2022/08/06 03:10:35;;;;;;;13.90;12.73;;;8.80;99.90;;;;;;5067594;28;20541;-68
2022/08/06 03:13:04;;;;;;;14.63;13.40;;;8.80;99.90;;;;;;5058629;28;20463;-68
2022/08/06 03:15:32;;;;;;;13.47;12.73;;;8.70;99.90;;;;;;5061436;28;20483;-68
2022/08/06 03:18:02;;;;;;;14.17;13.23;;;8.70;99.90;;;;;;5055159;28;21010;-69
2022/08/06 03:20:30;;;;;;;14.70;13.80;;;8.50;99.90;;;;;;5049462;28;20981;-67
2022/08/06 03:23:00;;;;;;;14.40;13.40;;;8.50;99.90;;;;;;5057846;28;20507;-67
2022/08/06 03:25:29;;;;;;;15.00;13.80;;;8.50;99.90;;;;;;5063608;28;20455;-68
2022/08/06 03:27:57;;;;;;;16.93;14.80;;;8.40;99.90;;;;;;5060714;28;20571;-67
2022/08/06 03:30:25;;;;;;;16.57;14.97;;;8.40;99.90;;;;;;5066837;28;20471;-68
2022/08/06 03:32:54;;;;;;;15.30;14.13;;;8.40;99.90;;;;;;5059792;28;20467;-68
2022/08/06 03:35:24;;;;;;;16.13;14.70;;;8.50;99.90;;;;;;5057251;28;20928;-68
2022/08/06 03:37:56;;;;;;;16.27;14.93;;;8.50;99.90;;;;;;5066536;28;20780;-68
2022/08/06 03:40:25;;;;;;;16.00;15.00;;;8.40;99.90;;;;;;5064499;28;20466;-68
2022/08/06 03:42:53;;;;;;;16.27;14.60;;;8.50;99.90;;;;;;5062349;28;20490;-67
2022/08/06 03:45:20;;;;;;;16.47;15.20;;;8.50;99.90;;;;;;5063212;28;21005;-68
2022/08/06 03:47:56;;;;;;;15.40;13.90;;;8.50;99.90;;;;;;5064422;28;20538;-69
2022/08/06 03:50:30;;;;;;;15.20;14.00;;;8.40;99.90;;;;;;5056486;28;20465;-67
2022/08/06 03:53:01;;;;;;;17.87;15.37;;;8.30;99.90;;;;;;5055873;28;20464;-68
2022/08/06 03:55:33;;;;;;;15.90;14.70;;;8.30;99.90;;;;;;5064919;28;20951;-68
2022/08/06 03:58:04;;;;;;;15.20;14.20;;;8.40;99.90;;;;;;5062164;28;20469;-68
2022/08/06 04:00:35;;;;;;;15.47;14.27;;;8.50;99.90;;;;;;5061470;28;20522;-68
2022/08/06 04:03:04;;;;;;;16.13;14.90;;;8.50;99.90;;;;;;5043451;28;20581;-67
2022/08/06 04:05:35;;;;;;;16.63;15.33;;;8.50;99.90;;;;;;5038653;28;20463;-68
2022/08/06 04:08:04;;;;;;;16.70;15.40;;;8.50;99.90;;;;;;5035915;28;21299;-70
2022/08/06 04:10:39;;;;;;;16.23;14.73;;;8.60;99.90;;;;;;5036553;28;20470;-70
2022/08/06 04:13:09;;;;;;;16.20;14.80;;;8.50;99.90;;;;;;5038066;28;20946;-68
2022/08/06 04:15:38;;;;;;;15.97;14.80;;;8.50;99.90;;;;;;5038052;28;20475;-68
2022/08/06 04:18:08;;;;;;;16.57;15.17;;;8.50;99.90;;;;;;5038532;28;20464;-68
2022/08/06 04:20:38;;;;;;;17.13;15.50;;;8.60;99.90;;;;;;5039204;28;20555;-67
2022/08/06 04:23:05;;;;;;;16.93;15.40;;;8.70;99.90;;;;;;5035840;28;20589;-69
2022/08/06 04:25:41;;;;;;;17.57;15.60;;;8.80;99.90;;;;;;5036689;28;20965;-68
2022/08/06 04:28:10;;;;;;;16.63;15.30;;;8.90;99.90;;;;;;5036503;28;20461;-69
2022/08/06 04:30:38;;;;;;;18.67;16.70;;;8.90;99.90;;;;;;5037478;28;20969;-69
2022/08/06 04:33:07;;;;;;;17.30;15.60;;;9.00;99.90;;;;;;5038634;28;20533;-69
2022/08/06 04:35:38;;;;;;;18.10;16.53;;;9.00;99.90;;;;;;5035384;28;20883;-67
2022/08/06 04:38:06;;;;;;;17.10;15.63;;;9.10;99.90;;;;;;5035157;28;20611;-69
2022/08/06 04:40:33;;;;;;;18.50;15.53;;;9.10;99.90;;;;;;5035281;28;20950;-68
2022/08/06 04:45:43;;;;;;;17.00;15.50;;;9.00;99.90;;;;;;5036163;28;20997;-68
2022/08/06 04:48:11;;;;;;;17.27;15.93;;;9.00;99.90;;;;;;5036441;28;20562;-70
2022/08/06 04:50:42;;;;;;;20.30;16.50;;;9.10;99.90;;;;;;5037515;28;20477;-68
2022/08/06 04:53:11;;;;;;;18.70;17.10;;;9.20;99.90;;;;;;5035579;28;20463;-67
2022/08/06 04:55:41;;;;;;;19.83;17.73;;;9.30;99.90;;;;;;5036402;28;20471;-70
2022/08/06 04:58:10;;;;;;;23.27;17.57;;;9.40;99.90;;;;;;5037245;28;21091;-69
2022/08/06 05:00:40;;;;;;;17.80;16.30;;;9.50;99.90;;;;;;5037676;28;20650;-68
2022/08/06 05:03:06;;;;;;;17.77;16.27;;;9.60;99.90;;;;;;5036971;28;20560;-68
2022/08/06 05:05:39;;;;;;;18.43;16.83;;;9.70;99.90;;;;;;5037244;28;20581;-68
2022/08/06 05:08:09;;;;;;;17.97;16.33;;;9.70;99.90;;;;;;5035493;28;20462;-68
2022/08/06 05:10:42;;;;;;;17.90;16.70;;;9.80;99.90;;;;;;5035616;28;20862;-69
2022/08/06 05:13:13;;;;;;;18.60;16.90;;;9.90;99.90;;;;;;5036863;28;20761;-69
2022/08/06 05:15:44;;;;;;;19.80;18.20;;;10.00;99.90;;;;;;5036811;28;20857;-69
2022/08/06 05:18:18;;;;;;;19.37;17.87;;;10.00;99.90;;;;;;5037657;28;20727;-68
2022/08/06 05:20:51;;;;;;;19.40;17.87;;;10.10;99.90;;;;;;5036500;28;20461;-71
2022/08/06 05:23:23;;;;;;;21.40;18.90;;;10.20;99.90;;;;;;5035295;28;20497;-69
2022/08/06 05:25:50;;;;;;;19.90;18.23;;;10.30;99.90;;;;;;5034859;28;20945;-69
2022/08/06 05:28:17;;;;;;;21.10;19.10;;;10.40;99.90;;;;;;5036837;28;20463;-70
2022/08/06 05:30:45;;;;;;;20.47;18.63;;;10.40;99.90;;;;;;5036843;28;20778;-70
2022/08/06 05:33:22;;;;;;;22.03;19.70;;;10.50;99.90;;;;;;5058625;28;20451;-68
2022/08/06 05:35:48;;;;;;;20.63;18.73;;;10.60;99.90;;;;;;5060264;28;20477;-68
2022/08/06 05:38:16;;;;;;;23.70;20.90;;;10.70;99.90;;;;;;5051552;28;20466;-69
2022/08/06 05:40:47;;;;;;;22.43;19.93;;;10.80;99.90;;;;;;5036527;28;20470;-68
2022/08/06 05:43:13;;;;;;;20.87;18.90;;;10.80;99.90;;;;;;5036935;28;21140;-69
2022/08/06 05:45:42;;;;;;;20.43;18.53;;;10.90;99.90;;;;;;5036895;28;20490;-69
2022/08/06 05:48:10;;;;;;;27.33;19.90;;;11.00;99.90;;;;;;5035855;28;20875;-68
2022/08/06 05:50:42;;;;;;;21.20;19.30;;;11.10;99.90;;;;;;5036445;28;20843;-68
2022/08/06 05:53:12;;;;;;;21.77;19.93;;;11.20;99.90;;;;;;5034169;28;20550;-71
2022/08/06 05:55:42;;;;;;;21.77;19.47;;;11.30;99.90;;;;;;5034455;28;20544;-69
2022/08/06 05:58:18;;;;;;;24.33;20.03;;;11.30;99.90;;;;;;5036088;28;20451;-70
2022/08/06 06:00:46;;;;;;;20.27;18.43;;;11.40;99.90;;;;;;5033581;28;21262;-68
2022/08/06 06:03:15;;;;;;;20.77;18.97;;;11.50;99.90;;;;;;5033501;28;20852;-67
2022/08/06 06:05:43;;;;;;;21.83;19.13;;;11.60;99.90;;;;;;5034623;28;20468;-67
2022/08/06 06:08:10;;;;;;;21.17;19.20;;;11.80;99.90;;;;;;5033715;28;21188;-68
2022/08/06 06:10:40;;;;;;;21.40;19.50;;;11.90;99.90;;;;;;5034148;28;20911;-68
2022/08/06 06:13:08;;;;;;;23.03;20.83;;;12.10;99.90;;;;;;5031714;28;21013;-68
2022/08/06 06:15:43;;;;;;;22.30;20.20;;;12.20;99.90;;;;;;5033348;28;20565;-69
2022/08/06 06:18:18;;;;;;;24.13;20.10;;;12.30;99.90;;;;;;5033765;28;22968;-66
2022/08/06 06:20:53;;;;;;;22.17;19.97;;;12.40;99.90;;;;;;5034074;28;21029;-66
2022/08/06 06:23:27;;;;;;;21.37;19.27;;;12.60;99.90;;;;;;5032720;28;21256;-66
2022/08/06 06:26:04;;;;;;;21.87;19.73;;;12.70;99.90;;;;;;5033846;28;20467;-65
2022/08/06 06:28:41;;;;;;;20.63;19.03;;;12.90;99.90;;;;;;5031912;28;20459;-65
2022/08/06 06:31:23;;;;;;;23.63;18.83;;;13.00;99.90;;;;;;5034114;28;20467;-66
2022/08/06 06:34:03;;;;;;;22.87;19.63;;;13.20;99.90;;;;;;5033969;28;20468;-66
2022/08/06 06:36:35;;;;;;;20.37;18.43;;;13.20;99.90;;;;;;5030017;28;20464;-66
2022/08/06 06:39:06;;;;;;;19.47;17.10;;;13.40;99.90;;;;;;5055092;28;20471;-68
2022/08/06 06:41:37;;;;;;;17.70;15.90;;;13.60;99.90;;;;;;5059603;28;20463;-65
2022/08/06 06:44:11;;;;;;;17.63;15.90;;;13.80;99.90;;;;;;5055795;28;20499;-67
2022/08/06 06:46:47;;;;;;;19.27;15.20;;;13.90;99.90;;;;;;5033557;28;20585;-67
2022/08/06 06:49:19;;;;;;;17.10;15.47;;;14.10;99.90;;;;;;5033814;28;20468;-65
2022/08/06 06:51:52;;;;;;;16.00;14.80;;;14.20;99.90;;;;;;5032330;28;20471;-68
2022/08/06 06:54:25;;;;;;;15.27;14.13;;;14.30;99.90;;;;;;5033899;28;20463;-66
2022/08/06 06:56:55;;;;;;;15.97;14.50;;;14.50;99.90;;;;;;5032709;28;20463;-65
2022/08/06 06:59:28;;;;;;;21.50;14.03;;;14.70;99.90;;;;;;5034132;28;21318;-67
2022/08/06 07:01:59;;;;;;;15.03;13.50;;;14.90;99.90;;;;;;5033907;28;21095;-70
2022/08/06 07:04:27;;;;;;;19.00;14.23;;;15.00;99.90;;;;;;5033659;28;20582;-69
2022/08/06 07:06:57;;;;;;;15.10;13.80;;;15.20;99.90;;;;;;5033019;28;20470;-68
2022/08/06 07:09:26;;;;;;;15.13;13.90;;;15.40;99.90;;;;;;5033343;28;20489;-69
2022/08/06 07:11:56;;;;;;;14.03;12.77;;;15.60;99.90;;;;;;5033639;28;20474;-68
2022/08/06 07:14:25;;;;;;;15.10;13.77;;;15.80;99.90;;;;;;5030937;28;21328;-67
2022/08/06 07:16:55;;;;;;;15.40;13.97;;;16.00;99.90;;;;;;5028942;28;21413;-68
2022/08/06 07:19:25;;;;;;;14.07;13.27;;;16.20;99.90;;;;;;5031254;28;21245;-68
2022/08/06 07:21:52;;;;;;;15.00;13.77;;;16.50;99.90;;;;;;5032502;28;20452;-70
2022/08/06 07:24:19;;;;;;;15.57;14.40;;;16.60;99.90;;;;;;5033783;28;20467;-69
2022/08/06 07:26:47;;;;;;;15.43;14.13;;;16.70;99.90;;;;;;5033014;28;20471;-68
2022/08/06 07:29:17;;;;;;;14.57;13.67;;;16.90;99.90;;;;;;5032322;28;20463;-69
2022/08/06 07:31:44;;;;;;;14.53;13.43;;;17.10;99.90;;;;;;5033080;28;20466;-67
2022/08/06 07:34:12;;;;;;;14.67;13.67;;;17.40;99.90;;;;;;5033306;28;20908;-68
2022/08/06 07:36:47;;;;;;;15.03;13.90;;;17.50;99.90;;;;;;5030433;28;21288;-67
2022/08/06 07:39:23;;;;;;;13.83;12.87;;;17.60;99.90;;;;;;5032516;28;20585;-67
2022/08/06 07:41:52;;;;;;;13.30;12.70;;;17.50;99.90;;;;;;5032100;28;20792;-67
2022/08/06 07:44:22;;;;;;;13.67;12.97;;;17.70;99.90;;;;;;5032120;28;20510;-67
2022/08/06 07:46:54;;;;;;;13.90;13.30;;;17.70;99.90;;;;;;5040731;28;21440;-69
2022/08/06 07:49:25;;;;;;;21.30;13.67;;;18.00;99.90;;;;;;5031553;28;20464;-66
2022/08/06 07:51:56;;;;;;;14.10;13.10;;;18.20;99.90;;;;;;5033138;28;21070;-65
2022/08/06 07:54:25;;;;;;;14.00;12.70;;;18.20;99.90;;;;;;5038503;28;20852;-65
2022/08/06 07:56:52;;;;;;;13.33;12.57;;;18.30;99.90;;;;;;5056872;28;20463;-65
2022/08/06 07:59:20;;;;;;;14.03;13.33;;;18.40;99.90;;;;;;5057471;28;20502;-66
2022/08/06 08:01:48;;;;;;;13.40;12.73;;;18.50;99.90;;;;;;5052105;28;20869;-66
2022/08/06 08:07:03;;;;;;;14.33;13.33;;;18.80;99.90;;;;;;5035249;28;20966;-64
2022/08/06 08:09:32;;;;;;;14.57;13.47;;;19.00;99.90;;;;;;5030784;28;20945;-67
2022/08/06 08:12:00;;;;;;;14.70;13.70;;;19.00;99.90;;;;;;5033310;28;20476;-65
2022/08/06 08:14:27;;;;;;;14.13;13.27;;;18.90;99.90;;;;;;5034423;28;21116;-65
2022/08/06 08:16:55;;;;;;;14.03;13.23;;;18.90;99.90;;;;;;5034970;28;20634;-67
2022/08/06 08:19:27;;;;;;;13.90;13.10;;;18.80;99.90;;;;;;5034423;28;20477;-67
2022/08/06 08:21:56;;;;;;;13.97;13.07;;;19.00;99.90;;;;;;5035171;28;20462;-67
2022/08/06 08:24:25;;;;;;;14.30;13.07;;;19.00;99.90;;;;;;5034248;28;20487;-66
2022/08/06 08:26:52;;;;;;;15.47;14.37;;;18.80;99.90;;;;;;5034177;28;20506;-67
2022/08/06 08:29:19;;;;;;;13.33;12.63;;;19.00;99.90;;;;;;5035033;28;20472;-66
2022/08/06 08:31:46;;;;;;;14.40;13.57;;;19.10;99.90;;;;;;5034175;28;21380;-65
2022/08/06 08:34:13;;;;;;;13.80;12.90;;;19.30;99.90;;;;;;5035263;28;20497;-67
2022/08/06 08:36:41;;;;;;;14.27;13.47;;;19.70;99.90;;;;;;5034447;28;20462;-66
2022/08/06 08:39:11;;;;;;;15.50;14.50;;;20.00;99.90;;;;;;5035087;28;21047;-67
2022/08/06 08:41:41;;;;;;;14.27;13.57;;;20.70;99.90;;;;;;5035957;28;20459;-66
2022/08/06 08:44:11;;;;;;;13.90;13.20;;;21.20;99.90;;;;;;5036020;28;20483;-66
2022/08/06 08:46:39;;;;;;;14.73;14.00;;;21.40;99.90;;;;;;5035904;28;20490;-65
2022/08/06 08:49:08;;;;;;;14.20;13.40;;;22.20;99.90;;;;;;5034651;28;20603;-67
2022/08/06 08:51:39;;;;;;;14.80;13.90;;;22.40;99.90;;;;;;5034608;28;20493;-66
2022/08/06 08:54:09;;;;;;;14.60;13.80;;;22.90;99.90;;;;;;5035543;28;20470;-66
2022/08/06 08:56:39;;;;;;;14.43;13.63;;;22.80;98.10;;;;;;5036128;28;20454;-66
2022/08/06 08:59:06;;;;;;;14.20;13.57;;;22.50;98.80;;;;;;5035986;28;20464;-67
2022/08/06 09:01:34;;;;;;;14.50;13.40;;;22.00;98.00;;;;;;5035776;28;20475;-67
2022/08/06 09:04:04;;;;;;;13.97;13.33;;;22.20;98.80;;;;;;5036180;28;20852;-67
2022/08/06 09:06:32;;;;;;;14.40;13.70;;;22.50;98.80;;;;;;5035875;28;20517;-66
2022/08/06 09:09:03;;;;;;;14.60;13.90;;;23.30;97.70;;;;;;5035662;28;20550;-66
2022/08/06 09:11:31;;;;;;;13.70;13.00;;;23.80;95.90;;;;;;5036532;28;20469;-67
2022/08/06 09:14:02;;;;;;;13.63;12.83;;;23.50;93.80;;;;;;5036747;28;20464;-66
2022/08/06 09:16:29;;;;;;;13.93;13.20;;;23.00;95.50;;;;;;5035546;28;20494;-67
2022/08/06 09:18:56;;;;;;;14.00;13.10;;;23.00;96.20;;;;;;5036201;28;20538;-66
2022/08/06 09:21:23;;;;;;;14.50;13.50;;;23.10;95.00;;;;;;5035734;28;20471;-66
2022/08/06 09:23:50;;;;;;;13.80;13.20;;;23.30;95.90;;;;;;5034404;28;21184;-66
2022/08/06 09:26:17;;;;;;;13.93;13.33;;;23.00;93.90;;;;;;5036122;28;20467;-65
2022/08/06 09:28:45;;;;;;;13.90;13.20;;;22.80;93.90;;;;;;5035039;28;20614;-66
2022/08/06 09:31:14;;;;;;;13.63;12.80;;;22.70;93.40;;;;;;5034541;28;20455;-66
2022/08/06 09:33:43;;;;;;;13.87;13.10;;;22.40;94.00;;;;;;5044578;28;20464;-66
2022/08/06 09:36:12;;;;;;;14.00;13.37;;;22.30;93.90;;;;;;5054902;28;21003;-67
2022/08/06 09:38:50;;;;;;;14.40;13.50;;;22.10;94.50;;;;;;5057988;28;20542;-65
2022/08/06 09:41:18;;;;;;;13.77;12.93;;;22.60;93.30;;;;;;5051319;28;20953;-66
2022/08/06 09:43:48;;;;;;;13.50;12.80;;;23.40;92.50;;;;;;5046499;28;21068;-67
2022/08/06 09:46:17;;;;;;;13.10;12.40;;;24.50;91.10;;;;;;5034730;28;20479;-66
2022/08/06 09:49:00;;;;;;;14.37;13.30;;;25.30;88.80;;;;;;5025347;28;20496;-66
2022/08/06 09:51:29;;;;;;;13.37;12.57;;;25.90;83.20;;;;;;5034993;28;20565;-67
2022/08/06 09:53:58;;;;;;;13.00;12.40;;;26.00;81.50;;;;;;5035439;28;20470;-68
2022/08/06 09:56:26;;;;;;;13.13;12.53;;;26.50;77.10;;;;;;5034974;28;20630;-66
2022/08/06 09:58:58;;;;;;;13.43;12.83;;;26.70;69.60;;;;;;5035155;28;20454;-67
2022/08/06 10:01:28;;;;;;;14.10;13.40;;;26.90;67.30;;;;;;5035134;28;20466;-67
2022/08/06 10:03:56;;;;;;;13.37;12.77;;;27.50;65.90;;;;;;5033475;28;21005;-67
2022/08/06 10:06:25;;;;;;;13.43;12.70;;;27.30;66.20;;;;;;5033240;28;20942;-66
2022/08/06 10:09:08;;;;;;;13.57;12.83;;;25.70;69.20;;;;;;5035107;28;20467;-66
2022/08/06 10:11:36;;;;;;;13.67;12.97;;;24.50;70.00;;;;;;5035014;28;20538;-65
2022/08/06 10:14:03;;;;;;;14.17;13.47;;;23.70;69.60;;;;;;5035205;28;20554;-68
2022/08/06 10:16:32;;;;;;;13.30;12.50;;;23.10;74.00;;;;;;5034077;28;20483;-67
2022/08/06 10:19:02;;;;;;;13.43;12.83;;;23.00;75.10;;;;;;5035165;28;21136;-67
2022/08/06 10:21:32;;;;;;;13.03;12.33;;;23.00;73.00;;;;;;5034585;28;21442;-67
2022/08/06 10:24:02;;;;;;;13.30;12.67;;;23.10;72.60;;;;;;5035242;28;21290;-65
2022/08/06 10:26:32;;;;;;;13.20;12.60;;;23.40;74.80;;;;;;5034906;28;20463;-66
2022/08/06 10:29:03;;;;;;;13.37;12.87;;;23.10;74.70;;;;;;5034731;28;20459;-68
2022/08/06 10:31:33;;;;;;;13.13;12.17;;;23.00;75.20;;;;;;5040679;28;20461;-66
2022/08/06 10:34:03;;;;;;;13.30;12.40;;;23.00;74.30;;;;;;5056954;28;20460;-66
2022/08/06 10:36:37;;;;;;;12.93;12.30;;;23.30;75.50;;;;;;5052251;28;20897;-67
2022/08/06 10:39:05;;;;;;;13.10;12.50;;;23.70;74.10;;;;;;5053841;28;20477;-66
2022/08/06 10:41:35;;;;;;;12.87;12.27;;;23.50;76.00;;;;;;5034204;28;20749;-68
2022/08/06 10:44:03;;;;;;;12.23;11.63;;;23.20;76.30;;;;;;5033679;28;20609;-66
2022/08/06 10:46:33;;;;;;;12.77;12.17;;;23.80;75.70;;;;;;5034614;28;20603;-66
2022/08/06 10:49:01;;;;;;;12.20;11.67;;;24.40;76.70;;;;;;5034226;28;20500;-67
2022/08/06 10:51:28;;;;;;;13.33;12.63;;;25.00;73.30;;;;;;5034522;28;20463;-68
2022/08/06 10:53:55;;;;;;;13.00;12.40;;;25.60;72.60;;;;;;5034677;28;20666;-68
2022/08/06 10:56:26;;;;;;;12.30;11.80;;;26.10;69.00;;;;;;5034130;28;20892;-68
2022/08/06 10:58:54;;;;;;;12.63;11.93;;;26.10;68.10;;;;;;5034063;28;20781;-66
2022/08/06 11:01:29;;;;;;;12.60;11.70;;;26.00;68.20;;;;;;5034063;28;20554;-67
2022/08/06 11:04:19;;;;;;;12.87;12.27;;;27.20;63.80;;;;;;5034440;28;20470;-67
2022/08/06 11:07:05;;;;;;;13.33;12.67;;;26.70;64.80;;;;;;5033790;28;20468;-67
2022/08/06 11:09:54;;;;;;;13.00;12.40;;;26.00;65.60;;;;;;5034316;28;20785;-68
2022/08/06 11:12:35;;;;;;;12.73;12.00;;;24.60;67.80;;;;;;5035125;28;20467;-66
2022/08/06 11:15:05;;;;;;;12.27;11.67;;;24.00;70.40;;;;;;5033887;28;20486;-66
2022/08/06 11:17:43;;;;;;;12.40;11.90;;;24.50;70.60;;;;;;5033711;28;20460;-67
2022/08/06 11:20:40;;;;;;;12.60;11.80;;;25.70;63.90;;;;;;5033557;28;20490;-67
2022/08/06 11:23:26;;;;;;;12.60;12.00;;;27.10;61.10;;;;;;5033770;28;20653;-66
2022/08/06 11:25:55;;;;;;;12.63;12.00;;;28.30;57.80;;;;;;5033991;28;20904;-68
2022/08/06 11:28:58;;;;;;;13.30;12.50;;;29.50;54.60;;;;;;5033478;28;20464;-68
2022/08/06 11:31:34;;;;;;;12.60;12.10;;;30.20;52.30;;;;;;5033697;28;20462;-68
2022/08/06 11:34:02;;;;;;;13.60;12.90;;;30.60;52.30;;;;;;5033398;28;20474;-68
2022/08/06 11:36:47;;;;;;;12.77;12.13;;;30.90;48.70;;;;;;5042698;28;20475;-68
2022/08/06 11:39:15;;;;;;;13.67;13.10;;;30.90;48.60;;;;;;5061127;28;20467;-67
2022/08/06 11:41:47;;;;;;;14.10;13.40;;;31.10;46.70;;;;;;5038560;28;20850;-67
2022/08/06 11:44:18;;;;;;;13.73;13.13;;;28.60;49.70;;;;;;5055220;28;20856;-67
2022/08/06 11:46:48;;;;;;;13.13;12.57;;;28.10;49.80;;;;;;5062205;28;20868;-68
2022/08/06 11:49:21;;;;;;;12.27;11.53;;;27.20;51.80;;;;;;5057380;28;20471;-68
2022/08/06 11:51:53;;;;;;;12.20;11.47;;;27.00;52.40;;;;;;5028696;28;20469;-67
2022/08/06 11:54:21;;;;;;;12.37;11.60;;;27.70;52.50;;;;;;5035246;28;20986;-67
2022/08/06 11:57:20;;;;;;;13.90;13.10;;;28.90;50.30;;;;;;5033826;28;21029;-68
2022/08/06 12:00:01;;;;;;;13.07;12.47;;;29.10;50.30;;;;;;5036268;28;20538;-67
2022/08/06 12:03:02;;;;;;;12.63;12.00;;;27.90;51.20;;;;;;5056831;28;20995;-67
2022/08/06 12:05:39;;;;;;;12.33;11.83;;;27.20;51.50;;;;;;5062002;28;20843;-67
2022/08/06 12:08:26;;;;;;;12.40;11.70;;;26.50;53.90;;;;;;5046540;28;20459;-68
2022/08/06 12:11:32;;;;;;;12.30;11.80;;;27.60;51.10;;;;;;5036412;28;20727;-67
2022/08/06 12:13:59;;;;;;;13.23;12.57;;;28.60;49.80;;;;;;5027813;28;20487;-67
2022/08/06 12:16:38;;;;;;;12.87;12.37;;;30.30;48.20;;;;;;5035051;28;20989;-68
2022/08/06 12:19:11;;;;;;;12.60;12.10;;;31.50;46.70;;;;;;5033803;28;20468;-68
2022/08/06 12:21:42;;;;;;;12.70;12.10;;;31.40;45.20;;;;;;5033977;28;21196;-68
2022/08/06 12:24:11;;;;;;;13.70;12.63;;;31.60;44.30;;;;;;5037283;28;20517;-68
2022/08/06 12:26:39;;;;;;;13.00;12.40;;;31.40;43.40;;;;;;5035959;28;20536;-68
2022/08/06 12:29:08;;;;;;;13.67;12.93;;;31.30;44.10;;;;;;5040691;28;20471;-67
2022/08/06 12:31:40;;;;;;;13.13;12.20;;;31.00;44.80;;;;;;5065319;28;20609;-68
2022/08/06 12:34:08;;;;;;;12.63;11.87;;;30.10;44.90;;;;;;5041705;28;20471;-69
2022/08/06 12:36:37;;;;;;;12.60;12.00;;;29.80;46.30;;;;;;5037245;28;20466;-68
2022/08/06 12:39:10;;;;;;;12.90;12.10;;;29.40;46.60;;;;;;5035742;28;20568;-68
2022/08/06 12:41:42;;;;;;;12.43;11.63;;;28.80;46.70;;;;;;5031106;28;20467;-68
2022/08/06 12:44:13;;;;;;;12.10;11.50;;;27.40;48.80;;;;;;5035445;28;20487;-67
2022/08/06 12:46:40;;;;;;;11.43;10.90;;;26.60;49.20;;;;;;5035391;28;20490;-68
2022/08/06 12:49:08;;;;;;;11.50;11.00;;;26.10;51.40;;;;;;5035026;28;20466;-67
2022/08/06 12:51:35;;;;;;;11.10;10.60;;;26.80;50.40;;;;;;5036517;28;20467;-67
2022/08/06 12:54:04;;;;;;;11.80;11.30;;;27.40;47.90;;;;;;5036062;28;20813;-67
2022/08/06 12:56:35;;;;;;;11.40;10.90;;;27.90;47.00;;;;;;5035453;28;20460;-67